Tri Cities Airport
KPSC : now visible

Airfield :











YOU CAN JOIN US ON...

 
LOGIN :

Register | Disclaimer

   EN    FR    IT 

 









Legend :    VFR   Marginal VFR   IFR   Intensive IFR   Very Intensive IFR
Visi :
Ceiling :
>= 8 km
>= 3000ft
5 to 8 km
1000 to 3000 ft
1500m to 5 km
500 to 1000 ft
800 to 1500m
200 to 500 ft
< 800m
< 200 ft
Symbols :   Thunderstorms  Fog  Heavy snow  Heavy precipitations  Wind > 20 kt






- Airport Elevation : 410 ft
- IATA code : PSC


KPSC - Tri Cities

CURRENT METAR :
  • 051853Z 10003KT 7SM SCT006 SCT070 OVC120 04/00 A3016 RMK AO2 SLP218 T00390000

EXPIRED METARs :
  • 051811Z VRB03KT 7SM SCT006 SCT070 OVC120 03/00 A3017 RMK AO2 T00280000
  • 051753Z 11004KT 6SM HZ BKN070 OVC120 03/00 A3017 RMK AO2 SLP219 60000 T00280000 10028 20000 53022
  • 051725Z 11004KT 4SM BR SCT004 OVC070 02/00 A3016 RMK AO2 T00220000
  • 051653Z 09004KT 3SM BR OVC004 02/M01 A3014 RMK AO2 SLP210 T00171006

TAF KPSC
Valid from the 05 at 18:00 until the 06 at 18:00 UTC


051736Z 0518/0618 VRB02KT 5SM BR SCT004 OVC070
TEMPO 0518/0520 3SM BR OVC004
FM052000 VRB04KT 6SM HZ OVC025
FM060200 VRB03KT 6SM BR SCT015 BKN250
FM060600 VRB03KT P6SM OVC015
FM061200 VRB03KT 6SM BR OVC008



MET'MAP, your aeronautical weather chart ! - Copyright ORBIFLY December 2007 - Disclaimer

ORBIFLY MET'MAP TEAM :

Programming & Development : Alexandra Zaïnal
Concept & original design : Baudouin d'Aumeries
Assistance for programming : Marc-Olivier Méhu
Technical & hardware support : Manuel Goepfert

Contact : metmap@orbifly.com




SOURCES & CREDITS :

   NOAA       Earth
Advisory